Time;durP1;ratioP1;P1;durP2;ratioP2;P2;SDS_P1;SDS_P2;PMS_P1;PMS_P2;Temp;Humidity;BMP_temperature;BMP_pressure;BME280_temperature;BME280_humidity;BME280_pressure;Samples;Min_cycle;Max_cycle;Signal;HPM_P1;HPM_P2
2024/03/11 00:02:01;;;;;;;32.00;24.47;;;10.90;99.90;;;;;;5035102;28;20321;-69
2024/03/11 00:04:27;;;;;;;30.90;24.40;;;10.90;99.90;;;;;;5035855;28;20214;-68
2024/03/11 00:06:53;;;;;;;32.80;25.40;;;10.90;99.90;;;;;;5034877;28;20495;-69
2024/03/11 00:09:28;;;;;;;32.50;24.27;;;10.90;99.90;;;;;;5034761;28;20190;-69
2024/03/11 00:11:59;;;;;;;33.73;25.50;;;10.90;99.90;;;;;;5035950;28;20542;-67
2024/03/11 00:14:28;;;;;;;33.40;25.03;;;10.80;99.90;;;;;;5036232;28;20429;-67
2024/03/11 00:16:55;;;;;;;31.13;24.83;;;10.80;99.90;;;;;;5034460;28;20793;-67
2024/03/11 00:19:21;;;;;;;33.37;26.57;;;10.80;99.90;;;;;;5036084;28;20435;-67
2024/03/11 00:21:52;;;;;;;33.27;25.70;;;10.70;99.90;;;;;;5034964;28;20417;-67
2024/03/11 00:24:18;;;;;;;32.77;25.60;;;10.70;99.90;;;;;;5035637;28;20810;-68
2024/03/11 00:26:45;;;;;;;31.80;24.60;;;10.70;99.90;;;;;;5034441;28;20429;-68
2024/03/11 00:29:10;;;;;;;36.47;27.33;;;10.70;99.90;;;;;;5036000;28;20431;-67
2024/03/11 00:31:37;;;;;;;31.97;25.27;;;10.70;99.90;;;;;;5035382;28;20429;-69
2024/03/11 00:34:06;;;;;;;34.93;25.23;;;10.70;99.90;;;;;;5036024;28;20182;-68
2024/03/11 00:36:31;;;;;;;36.63;26.27;;;10.70;99.90;;;;;;5035945;28;20936;-67
2024/03/11 00:38:57;;;;;;;33.10;26.13;;;10.70;99.90;;;;;;5034681;28;20451;-67
2024/03/11 00:41:24;;;;;;;33.20;26.00;;;10.60;99.90;;;;;;5035936;28;21110;-69
2024/03/11 00:43:50;;;;;;;36.30;26.80;;;10.60;99.90;;;;;;5034305;28;20471;-68
2024/03/11 00:46:17;;;;;;;35.97;27.10;;;10.60;99.90;;;;;;5035010;28;20459;-66
2024/03/11 00:48:45;;;;;;;35.20;26.27;;;10.60;99.90;;;;;;5034896;28;20432;-68
2024/03/11 00:51:11;;;;;;;34.40;26.17;;;10.60;99.90;;;;;;5035273;28;20437;-69
2024/03/11 00:53:37;;;;;;;35.17;27.07;;;10.60;99.90;;;;;;5035057;28;20424;-67
2024/03/11 00:56:06;;;;;;;33.90;26.90;;;10.60;99.90;;;;;;5035532;28;20188;-67
2024/03/11 00:58:35;;;;;;;40.57;27.30;;;10.60;99.90;;;;;;5035262;28;20825;-67
2024/03/11 01:01:02;;;;;;;34.97;26.03;;;10.50;99.90;;;;;;5034202;28;20436;-67
2024/03/11 01:03:31;;;;;;;34.77;26.17;;;10.60;99.90;;;;;;5033652;28;20472;-68
2024/03/11 01:05:58;;;;;;;38.10;28.10;;;10.50;99.90;;;;;;5033724;28;20531;-67
2024/03/11 01:08:24;;;;;;;33.60;26.30;;;10.50;99.90;;;;;;5035073;28;20412;-68
2024/03/11 01:10:50;;;;;;;36.10;26.83;;;10.50;99.90;;;;;;5033811;28;20420;-67
2024/03/11 01:13:16;;;;;;;35.13;25.97;;;10.50;99.90;;;;;;5034925;28;20790;-68
2024/03/11 01:15:42;;;;;;;34.80;27.20;;;10.50;99.90;;;;;;5034574;28;20439;-67
2024/03/11 01:18:08;;;;;;;35.93;27.97;;;10.50;99.90;;;;;;5035196;28;20451;-67
2024/03/11 01:20:34;;;;;;;34.87;27.77;;;10.50;99.90;;;;;;5033449;28;20543;-67
2024/03/11 01:23:01;;;;;;;36.93;27.57;;;10.50;99.90;;;;;;5033910;28;20439;-68
2024/03/11 01:25:27;;;;;;;38.07;28.20;;;10.50;99.90;;;;;;5033994;28;20471;-68
2024/03/11 01:27:53;;;;;;;32.87;25.60;;;10.50;99.90;;;;;;5032647;28;20432;-67
2024/03/11 01:30:20;;;;;;;35.63;26.87;;;10.50;99.90;;;;;;5033903;28;20437;-67
2024/03/11 01:32:46;;;;;;;34.67;26.63;;;10.50;99.90;;;;;;5033193;28;20437;-67
2024/03/11 01:35:13;;;;;;;41.37;29.40;;;10.50;99.90;;;;;;5034819;28;20424;-66
2024/03/11 01:37:41;;;;;;;37.67;27.30;;;10.50;99.90;;;;;;5033498;28;20466;-68
2024/03/11 01:40:11;;;;;;;40.33;27.70;;;10.50;99.90;;;;;;5034555;28;20429;-67
2024/03/11 01:42:42;;;;;;;39.23;29.67;;;10.50;99.90;;;;;;5032693;28;20464;-67
2024/03/11 01:45:09;;;;;;;37.40;28.27;;;10.40;99.90;;;;;;5034213;28;20476;-67
2024/03/11 01:47:37;;;;;;;35.27;27.40;;;10.40;99.90;;;;;;5032244;28;20456;-67
2024/03/11 01:50:03;;;;;;;34.70;26.87;;;10.40;99.90;;;;;;5034122;28;20431;-67
2024/03/11 01:52:36;;;;;;;39.33;27.30;;;10.40;99.90;;;;;;5033760;28;20846;-66
2024/03/11 01:55:03;;;;;;;37.97;28.47;;;10.40;99.90;;;;;;5033808;28;21225;-68
2024/03/11 01:57:33;;;;;;;40.43;29.53;;;10.40;99.90;;;;;;5033854;28;20463;-67
2024/03/11 01:59:59;;;;;;;37.30;28.17;;;10.40;99.90;;;;;;5034809;28;20543;-68
2024/03/11 02:02:25;;;;;;;39.90;28.50;;;10.30;99.90;;;;;;5033651;28;20926;-67
2024/03/11 02:04:51;;;;;;;42.70;29.43;;;10.30;99.90;;;;;;5034137;28;20471;-68
2024/03/11 02:07:19;;;;;;;38.20;27.73;;;10.30;99.90;;;;;;5034054;28;20482;-68
2024/03/11 02:09:45;;;;;;;40.27;29.40;;;10.30;99.90;;;;;;5032701;28;20417;-68
2024/03/11 02:12:17;;;;;;;36.20;27.20;;;10.30;99.90;;;;;;5034486;28;20468;-67
2024/03/11 02:14:45;;;;;;;38.83;27.47;;;10.30;99.90;;;;;;5033574;28;20457;-68
2024/03/11 02:17:13;;;;;;;36.30;27.13;;;10.30;99.90;;;;;;5033835;28;20908;-67
2024/03/11 02:19:40;;;;;;;37.83;28.20;;;10.30;99.90;;;;;;5034053;28;20425;-67
2024/03/11 02:22:08;;;;;;;39.43;28.33;;;10.30;99.90;;;;;;5033537;28;20906;-68
2024/03/11 02:24:35;;;;;;;38.87;28.67;;;10.30;99.90;;;;;;5033241;28;20479;-69
2024/03/11 02:27:02;;;;;;;36.70;27.23;;;10.30;99.90;;;;;;5033229;28;20433;-68
2024/03/11 02:29:28;;;;;;;38.40;28.00;;;10.30;99.90;;;;;;5034140;28;21216;-69
2024/03/11 02:31:54;;;;;;;35.37;27.83;;;10.30;99.90;;;;;;5033268;28;20428;-67
2024/03/11 02:34:20;;;;;;;36.70;28.30;;;10.30;99.90;;;;;;5033452;28;20421;-67
2024/03/11 02:36:48;;;;;;;36.67;28.03;;;10.20;99.90;;;;;;5033150;28;20429;-68
2024/03/11 02:39:15;;;;;;;36.20;27.40;;;10.20;99.90;;;;;;5033860;28;20425;-68
2024/03/11 02:41:42;;;;;;;35.30;26.50;;;10.20;99.90;;;;;;5032969;28;20429;-69
2024/03/11 02:44:08;;;;;;;36.10;26.97;;;10.20;99.90;;;;;;5034077;28;20464;-68
2024/03/11 02:46:35;;;;;;;36.30;27.60;;;10.20;99.90;;;;;;5032567;28;20433;-67
2024/03/11 02:49:01;;;;;;;37.10;28.57;;;10.20;99.90;;;;;;5033235;28;20417;-67
2024/03/11 02:51:27;;;;;;;36.50;27.30;;;10.10;99.90;;;;;;5033521;28;20941;-68
2024/03/11 02:53:52;;;;;;;38.27;28.93;;;10.10;99.90;;;;;;5033349;28;20204;-68
2024/03/11 02:56:18;;;;;;;39.73;29.50;;;10.10;99.90;;;;;;5033896;28;20482;-67
2024/03/11 02:58:44;;;;;;;38.70;29.00;;;10.10;99.90;;;;;;5032957;28;20224;-68
2024/03/11 03:01:13;;;;;;;39.30;27.70;;;10.10;99.90;;;;;;5034679;28;20983;-68
2024/03/11 03:03:38;;;;;;;41.03;28.70;;;10.20;99.90;;;;;;5016089;28;20217;-68
2024/03/11 03:06:04;;;;;;;37.00;27.20;;;10.20;99.90;;;;;;5033550;28;20422;-68
2024/03/11 03:08:30;;;;;;;37.77;28.17;;;10.10;99.90;;;;;;5037159;28;20713;-67
2024/03/11 03:11:01;;;;;;;37.30;28.30;;;10.10;99.90;;;;;;5037136;28;20235;-68
2024/03/11 03:13:27;;;;;;;39.00;28.80;;;10.10;99.90;;;;;;5037215;28;20190;-67
2024/03/11 03:15:54;;;;;;;39.80;29.00;;;10.20;99.90;;;;;;5037123;28;20425;-67
2024/03/11 03:18:19;;;;;;;38.87;28.43;;;10.10;99.90;;;;;;5037660;28;20420;-67
2024/03/11 03:20:46;;;;;;;37.77;28.60;;;10.10;99.90;;;;;;5036051;28;20513;-67
2024/03/11 03:23:12;;;;;;;36.07;26.67;;;10.10;99.90;;;;;;5038086;28;20664;-67
2024/03/11 03:25:38;;;;;;;41.20;28.30;;;10.10;99.90;;;;;;5036375;28;20520;-67
2024/03/11 03:28:05;;;;;;;39.97;28.00;;;10.20;99.90;;;;;;5037178;28;20187;-68
2024/03/11 03:30:32;;;;;;;38.90;27.60;;;10.20;99.90;;;;;;5036027;28;20429;-67
2024/03/11 03:32:59;;;;;;;37.03;27.10;;;10.20;99.90;;;;;;5037469;28;20479;-68
2024/03/11 03:35:25;;;;;;;38.10;28.43;;;10.20;99.90;;;;;;5036708;28;20424;-68
2024/03/11 03:37:55;;;;;;;37.80;27.97;;;10.20;99.90;;;;;;5035754;28;20431;-68
2024/03/11 03:40:22;;;;;;;37.40;26.27;;;10.20;99.90;;;;;;5036653;28;20429;-68
2024/03/11 03:42:49;;;;;;;38.67;27.67;;;10.20;99.90;;;;;;5036669;28;20489;-67
2024/03/11 03:45:17;;;;;;;38.83;28.40;;;10.20;99.90;;;;;;5036991;28;20465;-68
2024/03/11 03:47:43;;;;;;;36.47;28.07;;;10.20;99.90;;;;;;5035844;28;20448;-68
2024/03/11 03:50:13;;;;;;;36.93;28.90;;;10.20;99.90;;;;;;5037360;28;20520;-67
2024/03/11 03:52:41;;;;;;;41.00;29.13;;;10.20;99.90;;;;;;5036223;28;20432;-67
2024/03/11 03:55:11;;;;;;;39.77;28.30;;;10.20;99.90;;;;;;5036472;28;21048;-68
2024/03/11 03:57:40;;;;;;;41.47;29.33;;;10.20;99.90;;;;;;5035691;28;20420;-68
2024/03/11 04:00:15;;;;;;;40.63;28.90;;;10.20;99.90;;;;;;5035936;28;20408;-68
2024/03/11 04:02:49;;;;;;;37.97;28.50;;;10.20;99.90;;;;;;5036749;28;20447;-67
2024/03/11 04:05:17;;;;;;;41.17;29.17;;;10.20;99.90;;;;;;5036836;28;20527;-67
2024/03/11 04:07:43;;;;;;;45.10;29.67;;;10.20;99.90;;;;;;5035550;28;20460;-68
2024/03/11 04:10:13;;;;;;;39.90;29.70;;;10.20;99.90;;;;;;5036968;28;20436;-67
2024/03/11 04:12:44;;;;;;;40.00;29.67;;;10.20;99.90;;;;;;5035706;28;20421;-67
2024/03/11 04:15:17;;;;;;;39.73;29.90;;;10.20;99.90;;;;;;5036858;28;21224;-68
2024/03/11 04:17:44;;;;;;;40.70;29.77;;;10.20;99.90;;;;;;5035322;28;20426;-67
2024/03/11 04:20:11;;;;;;;39.97;30.37;;;10.10;99.90;;;;;;5037015;28;20469;-67
2024/03/11 04:22:50;;;;;;;38.83;28.07;;;10.10;99.90;;;;;;5035304;28;20425;-68
2024/03/11 04:25:28;;;;;;;37.77;28.17;;;10.10;99.90;;;;;;5034690;28;20908;-66
2024/03/11 04:27:55;;;;;;;34.93;26.63;;;10.10;99.90;;;;;;5036506;28;20454;-68
2024/03/11 04:30:33;;;;;;;36.13;26.83;;;10.10;99.90;;;;;;5036721;28;20817;-68
2024/03/11 04:32:59;;;;;;;37.83;27.30;;;10.10;99.90;;;;;;5036680;28;20428;-68
2024/03/11 04:35:27;;;;;;;41.33;30.80;;;10.10;99.90;;;;;;5035534;28;20435;-68
2024/03/11 04:38:01;;;;;;;38.10;28.27;;;10.10;99.90;;;;;;5035588;28;20413;-67
2024/03/11 04:40:29;;;;;;;37.97;28.37;;;10.00;99.90;;;;;;5035214;28;20427;-67
2024/03/11 04:42:55;;;;;;;41.40;28.53;;;10.00;99.90;;;;;;5036030;28;20425;-67
2024/03/11 04:45:22;;;;;;;40.50;28.73;;;9.90;99.90;;;;;;5036125;28;20444;-68
2024/03/11 04:47:48;;;;;;;43.07;30.00;;;9.90;99.90;;;;;;5035161;28;20845;-67
2024/03/11 04:50:20;;;;;;;43.30;30.90;;;9.80;99.90;;;;;;5036329;28;20475;-67
2024/03/11 04:52:46;;;;;;;38.40;29.13;;;9.80;99.90;;;;;;5035436;28;20428;-67
2024/03/11 04:55:13;;;;;;;42.37;30.80;;;9.70;99.90;;;;;;5036352;28;20764;-67
2024/03/11 04:57:39;;;;;;;40.33;30.47;;;9.70;99.90;;;;;;5034959;28;20428;-68
2024/03/11 05:00:08;;;;;;;46.00;32.23;;;9.70;99.90;;;;;;5035810;28;20428;-68
2024/03/11 05:02:38;;;;;;;45.27;31.60;;;9.70;99.90;;;;;;5034976;28;20441;-66
2024/03/11 05:05:09;;;;;;;40.87;30.17;;;9.70;99.90;;;;;;5035451;28;20555;-67
2024/03/11 05:07:36;;;;;;;39.97;29.60;;;9.70;99.90;;;;;;5034952;28;21102;-68
2024/03/11 05:10:07;;;;;;;43.30;30.23;;;9.80;99.90;;;;;;5035359;28;20422;-67
2024/03/11 05:12:33;;;;;;;43.30;30.57;;;9.80;99.90;;;;;;5034633;28;20977;-68
2024/03/11 05:14:59;;;;;;;44.10;31.20;;;9.80;99.90;;;;;;5035723;28;20421;-65
2024/03/11 05:17:26;;;;;;;41.13;30.00;;;9.80;99.90;;;;;;5034802;28;20192;-66
2024/03/11 05:19:52;;;;;;;41.13;29.53;;;9.80;99.90;;;;;;5035022;28;20266;-66
2024/03/11 05:22:18;;;;;;;45.23;31.80;;;9.80;99.90;;;;;;5034542;28;20429;-69
2024/03/11 05:24:44;;;;;;;42.60;29.97;;;9.80;99.90;;;;;;5035144;28;20469;-66
2024/03/11 05:27:10;;;;;;;45.73;31.03;;;9.90;99.90;;;;;;5035700;28;20432;-66
2024/03/11 05:29:36;;;;;;;43.33;31.20;;;9.90;99.90;;;;;;5033871;28;20437;-66
2024/03/11 05:32:03;;;;;;;41.27;29.90;;;9.90;99.90;;;;;;5034888;28;20417;-67
2024/03/11 05:34:29;;;;;;;41.97;31.70;;;9.90;99.90;;;;;;5034675;28;20200;-66
2024/03/11 05:36:54;;;;;;;39.20;29.70;;;9.90;99.90;;;;;;5035043;28;20442;-66
2024/03/11 05:39:20;;;;;;;43.00;30.10;;;9.90;99.90;;;;;;5034824;28;20428;-66
2024/03/11 05:41:46;;;;;;;40.00;29.20;;;9.90;99.90;;;;;;5034814;28;20553;-65
2024/03/11 05:44:12;;;;;;;42.00;29.80;;;9.90;99.90;;;;;;5036193;28;20206;-68
2024/03/11 05:46:38;;;;;;;39.20;28.60;;;9.90;99.90;;;;;;5033419;28;20455;-66
2024/03/11 05:49:12;;;;;;;40.50;29.40;;;9.90;99.90;;;;;;5035418;28;20177;-67
2024/03/11 05:51:39;;;;;;;40.37;28.60;;;9.90;99.90;;;;;;5034092;28;21002;-66
2024/03/11 05:54:05;;;;;;;38.93;28.77;;;9.90;99.90;;;;;;5035105;28;20429;-67
2024/03/11 05:56:31;;;;;;;38.83;28.60;;;9.90;99.90;;;;;;5034159;28;20433;-66
2024/03/11 05:58:57;;;;;;;42.40;29.63;;;9.90;99.90;;;;;;5033924;28;20494;-66
2024/03/11 06:01:24;;;;;;;39.83;28.60;;;9.90;99.90;;;;;;5034299;28;20425;-66
2024/03/11 06:03:50;;;;;;;43.07;29.70;;;9.90;99.90;;;;;;5034646;28;20789;-66
2024/03/11 06:06:20;;;;;;;40.77;28.87;;;9.90;99.90;;;;;;5034472;28;20417;-66
2024/03/11 06:08:46;;;;;;;37.07;28.37;;;9.90;99.90;;;;;;5034507;28;20953;-66
2024/03/11 06:11:12;;;;;;;36.90;28.00;;;10.00;99.90;;;;;;5033898;28;20425;-67
2024/03/11 06:13:37;;;;;;;37.37;27.47;;;10.00;99.90;;;;;;5017529;28;20441;-65
2024/03/11 06:16:07;;;;;;;36.63;27.37;;;10.00;99.90;;;;;;5034845;28;20190;-67
2024/03/11 06:18:38;;;;;;;35.63;26.70;;;10.00;99.90;;;;;;5032961;28;20194;-66
2024/03/11 06:21:05;;;;;;;37.60;28.00;;;10.00;99.90;;;;;;5034079;28;20946;-66
2024/03/11 06:23:32;;;;;;;36.17;26.97;;;10.00;99.90;;;;;;5033658;28;20467;-66
2024/03/11 06:25:58;;;;;;;34.40;25.57;;;10.00;99.90;;;;;;5033604;28;20429;-67
2024/03/11 06:28:26;;;;;;;35.50;25.90;;;10.00;99.90;;;;;;5032830;28;20520;-67
2024/03/11 06:30:52;;;;;;;35.40;26.80;;;10.00;99.90;;;;;;5034843;28;20474;-67
2024/03/11 06:33:18;;;;;;;40.97;28.33;;;10.00;99.90;;;;;;5033410;28;20471;-67
2024/03/11 06:35:44;;;;;;;37.63;26.80;;;10.00;99.90;;;;;;5033437;28;20433;-66
2024/03/11 06:38:10;;;;;;;37.33;27.60;;;10.00;99.90;;;;;;5034436;28;20517;-67
2024/03/11 06:40:35;;;;;;;37.03;26.50;;;10.00;99.90;;;;;;5033367;28;20430;-66
2024/03/11 06:43:01;;;;;;;37.80;25.93;;;10.00;99.90;;;;;;5034978;28;20521;-66
2024/03/11 06:45:27;;;;;;;37.63;26.63;;;10.00;99.90;;;;;;5033191;28;20199;-67
2024/03/11 06:47:53;;;;;;;34.10;25.93;;;10.00;99.90;;;;;;5033452;28;20294;-66
2024/03/11 06:50:18;;;;;;;36.53;26.20;;;10.00;99.90;;;;;;5033481;28;20181;-67
2024/03/11 06:52:47;;;;;;;35.43;25.30;;;10.00;99.90;;;;;;5034315;28;20182;-66
2024/03/11 06:55:16;;;;;;;35.60;26.17;;;10.00;99.90;;;;;;5033879;28;20192;-67
2024/03/11 06:57:42;;;;;;;37.67;26.40;;;10.10;99.90;;;;;;5032772;28;20482;-66
2024/03/11 07:00:17;;;;;;;35.50;25.33;;;10.10;99.90;;;;;;5033676;28;20424;-66
2024/03/11 07:02:47;;;;;;;36.70;26.30;;;10.10;99.90;;;;;;5034545;28;20431;-67
2024/03/11 07:05:13;;;;;;;37.60;25.70;;;10.10;99.90;;;;;;5034355;28;20456;-66
2024/03/11 07:07:42;;;;;;;35.63;26.40;;;10.00;99.90;;;;;;5033882;28;20773;-66
2024/03/11 07:10:10;;;;;;;34.20;25.10;;;10.00;99.90;;;;;;5034130;28;20429;-67
2024/03/11 07:12:35;;;;;;;35.57;26.50;;;10.10;99.90;;;;;;5033435;28;20496;-66
2024/03/11 07:15:03;;;;;;;36.13;25.67;;;10.10;99.90;;;;;;5034816;28;20823;-66
2024/03/11 07:17:28;;;;;;;33.17;25.20;;;10.10;99.90;;;;;;5032953;28;20198;-67
2024/03/11 07:19:54;;;;;;;36.27;24.97;;;10.10;99.90;;;;;;5034465;28;20429;-67
2024/03/11 07:22:20;;;;;;;32.83;24.80;;;10.10;99.90;;;;;;5033157;28;20263;-67
2024/03/11 07:24:46;;;;;;;31.27;24.13;;;10.10;99.90;;;;;;5034025;28;20575;-67
2024/03/11 07:27:16;;;;;;;34.13;24.77;;;10.00;99.90;;;;;;5033621;28;20432;-66
2024/03/11 07:29:43;;;;;;;29.70;21.90;;;10.00;99.90;;;;;;5033903;28;20442;-66
2024/03/11 07:32:11;;;;;;;32.40;23.43;;;10.00;99.90;;;;;;5033226;28;20478;-66
2024/03/11 07:34:40;;;;;;;28.20;22.63;;;10.00;99.90;;;;;;5032029;28;20426;-66
2024/03/11 07:37:06;;;;;;;28.93;19.43;;;10.00;99.90;;;;;;5033195;28;20429;-66
2024/03/11 07:39:32;;;;;;;28.33;20.47;;;10.00;99.90;;;;;;5033365;28;20786;-66
2024/03/11 07:41:59;;;;;;;26.43;20.10;;;9.90;99.90;;;;;;5033451;28;20433;-66
2024/03/11 07:44:26;;;;;;;29.23;20.37;;;10.00;99.90;;;;;;5032972;28;20279;-66
2024/03/11 07:46:52;;;;;;;27.13;20.50;;;10.00;99.90;;;;;;5033875;28;20440;-66
2024/03/11 07:49:17;;;;;;;29.30;19.97;;;10.00;99.90;;;;;;5033064;28;20422;-66
2024/03/11 07:51:43;;;;;;;26.90;20.40;;;10.00;99.90;;;;;;5032390;28;20226;-66
2024/03/11 07:54:11;;;;;;;27.77;20.33;;;10.00;99.90;;;;;;5036112;28;20565;-67
2024/03/11 07:56:38;;;;;;;30.10;22.10;;;10.00;99.90;;;;;;5037362;28;20186;-66
2024/03/11 07:59:07;;;;;;;29.83;23.00;;;10.00;99.90;;;;;;5036653;28;20421;-66
2024/03/11 08:01:33;;;;;;;31.97;23.03;;;10.00;99.90;;;;;;5036992;28;20436;-66
2024/03/11 08:03:59;;;;;;;30.53;23.07;;;10.00;99.90;;;;;;5036255;28;20468;-67
2024/03/11 08:06:24;;;;;;;33.07;24.80;;;9.90;99.90;;;;;;5036500;28;20179;-66
2024/03/11 08:08:54;;;;;;;32.43;24.13;;;9.90;99.90;;;;;;5037153;28;20213;-66
2024/03/11 08:11:20;;;;;;;34.70;23.83;;;9.90;99.90;;;;;;5035951;28;20178;-67
2024/03/11 08:13:46;;;;;;;29.63;22.70;;;9.90;99.90;;;;;;5037319;28;20455;-66
2024/03/11 08:16:12;;;;;;;35.57;23.63;;;9.90;99.90;;;;;;5036743;28;20660;-66
2024/03/11 08:18:42;;;;;;;34.43;23.67;;;9.90;99.90;;;;;;5036664;28;20193;-65
2024/03/11 08:21:10;;;;;;;38.90;25.13;;;9.90;99.90;;;;;;5036671;28;20436;-67
2024/03/11 08:23:37;;;;;;;33.77;23.67;;;9.90;99.90;;;;;;5036120;28;20472;-67
2024/03/11 08:26:06;;;;;;;34.80;25.10;;;9.90;99.90;;;;;;5036557;28;20481;-67
2024/03/11 08:28:32;;;;;;;32.37;22.70;;;9.90;99.90;;;;;;5035960;28;20456;-66
2024/03/11 08:30:59;;;;;;;33.20;23.57;;;9.90;99.90;;;;;;5036430;28;20425;-66
2024/03/11 08:33:25;;;;;;;32.23;23.17;;;9.90;99.90;;;;;;5035726;28;20448;-66
2024/03/11 08:35:52;;;;;;;32.03;23.93;;;9.90;99.90;;;;;;5036471;28;20424;-66
2024/03/11 08:38:20;;;;;;;33.77;22.77;;;9.90;99.90;;;;;;5035742;28;20178;-66
2024/03/11 08:40:46;;;;;;;31.37;21.77;;;10.00;99.90;;;;;;5036038;28;20482;-66
2024/03/11 08:43:12;;;;;;;31.77;22.80;;;10.00;99.90;;;;;;5036237;28;20436;-67
2024/03/11 08:45:41;;;;;;;31.40;23.47;;;10.00;99.90;;;;;;5036221;28;20421;-66
2024/03/11 08:48:07;;;;;;;30.80;22.03;;;10.00;99.90;;;;;;5035357;28;20875;-66
2024/03/11 08:50:33;;;;;;;30.87;22.50;;;10.00;99.90;;;;;;5036510;28;20432;-67
2024/03/11 08:53:00;;;;;;;30.70;21.77;;;10.00;99.90;;;;;;5036170;28;21162;-66
2024/03/11 08:55:26;;;;;;;31.50;22.73;;;10.10;99.90;;;;;;5035402;28;20190;-66
2024/03/11 08:57:58;;;;;;;33.60;23.33;;;10.00;99.90;;;;;;5036293;28;20537;-66
2024/03/11 09:00:27;;;;;;;36.80;25.43;;;10.00;99.90;;;;;;5036204;28;20189;-67
2024/03/11 09:02:54;;;;;;;32.17;24.23;;;10.00;99.90;;;;;;5036558;28;20495;-66
2024/03/11 09:05:22;;;;;;;31.07;23.93;;;10.10;99.90;;;;;;5033946;28;21438;-66
2024/03/11 09:07:51;;;;;;;33.90;24.67;;;10.10;99.90;;;;;;5035915;28;20429;-66
2024/03/11 09:10:18;;;;;;;33.33;24.50;;;10.10;99.90;;;;;;5035303;28;20433;-67
2024/03/11 09:12:44;;;;;;;36.37;25.57;;;10.10;99.90;;;;;;5036456;28;20429;-65
2024/03/11 09:15:17;;;;;;;38.60;25.47;;;10.10;99.90;;;;;;5035328;28;20453;-66
2024/03/11 09:17:45;;;;;;;36.80;26.80;;;10.10;99.90;;;;;;5036208;28;20490;-66
2024/03/11 09:20:19;;;;;;;36.23;25.80;;;10.10;99.90;;;;;;5035291;28;20911;-66
2024/03/11 09:22:53;;;;;;;38.13;27.07;;;10.10;99.90;;;;;;5035604;28;20458;-67
2024/03/11 09:25:23;;;;;;;37.70;25.30;;;10.10;99.90;;;;;;5036119;28;20460;-66
2024/03/11 09:27:55;;;;;;;35.70;25.73;;;10.10;99.90;;;;;;5036767;28;20421;-67
2024/03/11 09:30:21;;;;;;;36.00;25.67;;;10.10;99.90;;;;;;5035763;28;20417;-66
2024/03/11 09:32:49;;;;;;;44.13;29.73;;;10.00;99.90;;;;;;5036188;28;20428;-65
2024/03/11 09:35:18;;;;;;;40.20;27.23;;;10.10;99.90;;;;;;5034447;28;20181;-66
2024/03/11 09:37:46;;;;;;;40.50;27.93;;;10.10;99.90;;;;;;5035320;28;20536;-66
2024/03/11 09:40:19;;;;;;;40.33;26.37;;;10.00;99.90;;;;;;5034921;28;20948;-66
2024/03/11 09:42:49;;;;;;;38.77;27.33;;;10.00;99.90;;;;;;5036445;28;20424;-66
2024/03/11 09:45:20;;;;;;;42.57;29.60;;;10.00;99.90;;;;;;5034708;28;20470;-66
2024/03/11 09:47:57;;;;;;;43.47;29.10;;;10.00;99.90;;;;;;5034873;28;20478;-66
2024/03/11 09:50:28;;;;;;;40.13;27.20;;;10.00;99.90;;;;;;5035441;28;20440;-66
2024/03/11 09:52:58;;;;;;;40.33;26.77;;;10.00;99.90;;;;;;5035685;28;20830;-66
2024/03/11 09:55:28;;;;;;;43.20;28.97;;;10.10;99.90;;;;;;5035628;28;20433;-66
2024/03/11 09:58:00;;;;;;;40.93;26.80;;;10.10;99.90;;;;;;5035258;28;20508;-66
2024/03/11 10:00:28;;;;;;;44.50;29.70;;;10.10;99.90;;;;;;5035378;28;20436;-66
2024/03/11 10:03:02;;;;;;;43.37;28.93;;;10.10;99.90;;;;;;5035152;28;20429;-66
2024/03/11 10:05:32;;;;;;;41.47;27.93;;;10.10;99.90;;;;;;5035580;28;20578;-65
2024/03/11 10:08:01;;;;;;;46.23;29.60;;;10.10;99.90;;;;;;5034590;28;20428;-66
2024/03/11 10:10:32;;;;;;;42.80;28.57;;;10.10;99.90;;;;;;5034603;28;20873;-65
2024/03/11 10:13:04;;;;;;;43.13;30.27;;;10.10;99.90;;;;;;5034608;28;20436;-67
2024/03/11 10:15:34;;;;;;;44.67;29.90;;;10.00;99.90;;;;;;5035579;28;21111;-66
2024/03/11 10:18:08;;;;;;;45.10;30.13;;;10.00;99.90;;;;;;5035115;28;21355;-66
2024/03/11 10:20:34;;;;;;;42.63;28.27;;;9.90;99.90;;;;;;5034504;28;20431;-66
2024/03/11 10:23:06;;;;;;;41.03;26.97;;;10.00;99.90;;;;;;5034271;28;20429;-66
2024/03/11 10:25:34;;;;;;;36.60;26.83;;;9.90;99.90;;;;;;5034848;28;20317;-66
2024/03/11 10:28:03;;;;;;;37.57;26.70;;;10.00;99.90;;;;;;5034787;28;21233;-66
2024/03/11 10:30:31;;;;;;;38.97;25.43;;;10.00;99.90;;;;;;5035196;28;20658;-66
2024/03/11 10:33:01;;;;;;;35.47;25.27;;;10.00;99.90;;;;;;5033917;28;20535;-66
2024/03/11 10:35:33;;;;;;;37.40;26.07;;;10.00;99.90;;;;;;5034153;28;20785;-66
2024/03/11 10:38:12;;;;;;;34.20;24.53;;;10.00;99.90;;;;;;5034108;28;21000;-66
2024/03/11 10:40:38;;;;;;;39.67;27.00;;;10.00;99.90;;;;;;5034290;28;20423;-66
2024/03/11 10:43:25;;;;;;;37.30;26.17;;;10.00;99.90;;;;;;5033733;28;20495;-66
2024/03/11 10:45:51;;;;;;;33.20;24.10;;;10.00;99.90;;;;;;5033183;28;20455;-66
2024/03/11 10:48:20;;;;;;;36.50;24.27;;;10.00;99.90;;;;;;5033859;28;20452;-67
2024/03/11 10:50:46;;;;;;;33.50;24.10;;;10.00;99.90;;;;;;5033553;28;20431;-66
2024/03/11 10:53:22;;;;;;;35.17;25.70;;;10.10;99.90;;;;;;5033937;28;20433;-66
2024/03/11 10:55:58;;;;;;;33.57;23.80;;;10.10;99.90;;;;;;5034202;28;20212;-66
2024/03/11 10:58:28;;;;;;;31.80;23.50;;;10.10;99.90;;;;;;5034242;28;20934;-66
2024/03/11 11:01:01;;;;;;;28.60;20.47;;;10.00;99.90;;;;;;5034459;28;20440;-67
2024/03/11 11:03:29;;;;;;;29.73;21.97;;;9.90;99.90;;;;;;5048989;28;20503;-66
2024/03/11 11:06:09;;;;;;;25.20;19.07;;;9.80;99.90;;;;;;5034427;28;20436;-67
2024/03/11 11:08:37;;;;;;;26.97;20.83;;;9.80;99.90;;;;;;5034445;28;20441;-66
2024/03/11 11:11:05;;;;;;;26.20;20.93;;;9.70;99.90;;;;;;5033543;28;20426;-66
2024/03/11 11:13:33;;;;;;;23.80;17.73;;;9.70;99.90;;;;;;5035078;28;20431;-67
2024/03/11 11:16:03;;;;;;;26.33;19.87;;;9.70;99.90;;;;;;5033368;28;20562;-66
2024/03/11 11:18:33;;;;;;;28.70;20.67;;;9.70;99.90;;;;;;5034203;28;20883;-66
2024/03/11 11:21:00;;;;;;;25.43;19.23;;;9.70;99.90;;;;;;5033357;28;20457;-66
2024/03/11 11:23:28;;;;;;;24.87;17.80;;;9.60;99.90;;;;;;5033613;28;20516;-66
2024/03/11 11:25:58;;;;;;;25.30;18.03;;;9.60;99.90;;;;;;5033695;28;20432;-66
2024/03/11 11:28:37;;;;;;;23.33;17.30;;;9.50;99.90;;;;;;5036069;28;20499;-66
2024/03/11 11:31:25;;;;;;;24.10;18.90;;;9.60;99.90;;;;;;5036980;28;20433;-67
2024/03/11 11:33:58;;;;;;;22.40;17.80;;;9.70;99.90;;;;;;5037331;28;20483;-67
2024/03/11 11:36:32;;;;;;;19.80;16.67;;;9.60;99.90;;;;;;5037867;28;20449;-66
2024/03/11 11:39:13;;;;;;;19.93;15.93;;;9.50;99.90;;;;;;5036259;28;20420;-67
2024/03/11 11:41:41;;;;;;;19.90;15.93;;;9.50;99.90;;;;;;5037465;28;20441;-66
2024/03/11 11:44:10;;;;;;;20.37;16.40;;;9.50;99.90;;;;;;5035963;28;20818;-66
2024/03/11 11:46:50;;;;;;;19.03;15.40;;;9.50;99.90;;;;;;5037467;28;20440;-67
2024/03/11 11:49:26;;;;;;;21.43;16.90;;;9.30;99.90;;;;;;5037372;28;20522;-67
2024/03/11 11:51:51;;;;;;;23.00;18.50;;;9.30;99.90;;;;;;5037108;28;20425;-67
2024/03/11 11:54:25;;;;;;;22.10;17.33;;;9.20;99.90;;;;;;5036141;28;20484;-66
2024/03/11 11:57:01;;;;;;;24.30;18.70;;;9.20;99.90;;;;;;5037604;28;21435;-67
2024/03/11 11:59:27;;;;;;;20.60;16.67;;;9.20;99.90;;;;;;5036508;28;20428;-65
2024/03/11 12:01:53;;;;;;;19.47;15.50;;;9.30;99.90;;;;;;5037093;28;20432;-66
2024/03/11 12:04:19;;;;;;;23.20;16.83;;;9.30;99.90;;;;;;5037125;28;20794;-66
2024/03/11 12:06:49;;;;;;;21.50;16.17;;;9.20;99.90;;;;;;5036387;28;20440;-67
2024/03/11 12:09:16;;;;;;;16.90;13.60;;;9.30;99.90;;;;;;5036619;28;20879;-66
2024/03/11 12:11:47;;;;;;;19.23;14.37;;;9.20;99.90;;;;;;5036054;28;20487;-67
2024/03/11 12:14:13;;;;;;;14.27;11.90;;;9.30;99.90;;;;;;5036701;28;20425;-66
2024/03/11 12:16:39;;;;;;;14.43;11.83;;;9.20;99.90;;;;;;5035289;28;21264;-67
2024/03/11 12:19:06;;;;;;;14.43;10.60;;;9.20;99.90;;;;;;5035529;28;20489;-66
2024/03/11 12:21:38;;;;;;;11.70;9.97;;;9.30;99.90;;;;;;5037311;28;20443;-66
2024/03/11 12:24:11;;;;;;;11.90;10.20;;;9.30;99.90;;;;;;5036000;28;20537;-66
2024/03/11 12:26:38;;;;;;;11.20;9.33;;;9.40;99.90;;;;;;5036245;28;20432;-66
2024/03/11 12:29:13;;;;;;;11.67;8.43;;;9.40;99.90;;;;;;5035546;28;20457;-66
2024/03/11 12:31:38;;;;;;;10.20;8.57;;;9.50;99.90;;;;;;5051313;28;20800;-65
2024/03/11 12:34:14;;;;;;;10.57;9.27;;;9.50;99.90;;;;;;5035454;28;20429;-65
2024/03/11 12:36:47;;;;;;;8.83;7.93;;;9.50;99.90;;;;;;5036198;28;20191;-66